Time,TemperatureF,DewpointF,PressureIn,WindDirection,WindDirectionDegrees,WindSpeedMPH,WindSpeedGustMPH,Humidity,HourlyPrecipIn,Conditions,Clouds,dailyrainin,SoftwareType,DateUTC
2013-11-10 01:12:00,64.0,24.0,29.85,North,0,0.0,0.0,22,0.00,,,0.00,,2013-11-10 09:12:00,
2013-11-10 04:21:00,66.0,23.0,29.82,North,0,0.0,0.0,19,0.00,,,0.00,,2013-11-10 12:21:00,
2013-11-10 05:52:00,63.0,24.0,29.84,North,0,0.0,0.0,22,0.00,,,0.00,,2013-11-10 13:52:00,
2013-11-10 09:23:00,68.0,22.0,29.89,North,0,0.0,0.0,17,0.00,,,0.00,,2013-11-10 17:23:00,
2013-11-10 10:23:00,69.0,24.0,29.91,North,0,0.0,0.0,18,0.00,,,0.00,,2013-11-10 18:23:00,
2013-11-10 10:32:00,69.0,24.0,29.91,North,0,0.0,0.0,18,0.00,,,0.00,,2013-11-10 18:32:00,
2013-11-10 10:42:00,69.0,24.0,29.91,North,0,0.0,0.0,18,0.00,,,0.00,,2013-11-10 18:42:00,
2013-11-10 10:52:00,70.0,23.0,29.91,North,0,0.0,0.0,17,0.00,,,0.00,,2013-11-10 18:52:00,
2013-11-10 11:21:00,73.0,24.0,29.90,North,0,0.0,0.0,16,0.00,,,0.00,,2013-11-10 19:21:00,
2013-11-10 11:32:00,73.0,24.0,29.90,North,0,0.0,0.0,16,0.00,,,0.00,,2013-11-10 19:32:00,
2013-11-10 11:52:00,75.0,23.0,29.89,North,0,0.0,0.0,14,0.00,,,0.00,,2013-11-10 19:52:00,
2013-11-10 12:52:00,71.0,36.0,29.86,North,0,0.0,0.0,28,0.00,,,0.00,,2013-11-10 20:52:00,
2013-11-10 13:22:00,66.0,41.0,29.85,North,0,0.0,0.0,40,0.00,,,0.00,,2013-11-10 21:22:00,
2013-11-10 13:55:00,66.0,46.0,29.84,North,0,0.0,0.0,48,0.00,,,0.00,,2013-11-10 21:55:00,
2013-11-10 14:13:00,67.0,43.0,29.83,North,0,0.0,0.0,42,0.00,,,0.00,,2013-11-10 22:13:00,
2013-11-10 14:23:00,67.0,43.0,29.83,North,0,0.0,0.0,42,0.00,,,0.00,,2013-11-10 22:23:00,
2013-11-10 14:54:00,69.0,40.0,29.83,North,0,0.0,0.0,35,0.00,,,0.00,,2013-11-10 22:54:00,
2013-11-10 15:22:00,67.0,40.0,29.83,North,0,0.0,0.0,37,0.00,,,0.00,,2013-11-10 23:22:00,
2013-11-10 15:34:00,67.0,40.0,29.83,North,0,0.0,0.0,37,0.00,,,0.00,,2013-11-10 23:34:00,
2013-11-10 15:53:00,65.0,35.0,29.83,North,0,0.0,0.0,33,0.00,,,0.00,,2013-11-10 23:53:00,
2013-11-10 16:22:00,63.0,34.0,29.83,North,0,0.0,0.0,34,0.00,,,0.00,,2013-11-11 00:22:00,
2013-11-10 16:41:00,63.0,34.0,29.83,North,0,0.0,0.0,34,0.00,,,0.00,,2013-11-11 00:41:00,
2013-11-10 16:52:00,63.0,33.0,29.83,North,0,0.0,0.0,32,0.00,,,0.00,,2013-11-11 00:52:00,
2013-11-10 17:22:00,61.0,32.0,29.84,North,0,0.0,0.0,33,0.00,,,0.00,,2013-11-11 01:22:00,
2013-11-10 17:32:00,61.0,32.0,29.84,North,0,0.0,0.0,33,0.00,,,0.00,,2013-11-11 01:32:00,
2013-11-10 17:42:00,61.0,32.0,29.84,North,0,0.0,0.0,33,0.00,,,0.00,,2013-11-11 01:42:00,
2013-11-10 18:21:00,61.0,30.0,29.84,North,0,0.0,0.0,31,0.00,,,0.00,,2013-11-11 02:21:00,
2013-11-10 18:32:00,61.0,30.0,29.84,North,0,0.0,0.0,31,0.00,,,0.00,,2013-11-11 02:32:00,
2013-11-10 19:21:00,61.0,30.0,29.85,North,0,0.0,0.0,31,0.00,,,0.00,,2013-11-11 03:21:00,
2013-11-10 19:34:00,61.0,30.0,29.85,North,0,0.0,0.0,31,0.00,,,0.00,,2013-11-11 03:34:00,
2013-11-10 19:55:00,62.0,33.0,29.85,North,0,0.0,0.0,33,0.00,,,0.00,,2013-11-11 03:55:00,
2013-11-10 20:14:00,63.0,37.0,29.85,North,0,0.0,0.0,38,0.00,,,0.00,,2013-11-11 04:14:00,
2013-11-10 20:24:00,63.0,37.0,29.85,North,0,0.0,0.0,38,0.00,,,0.00,,2013-11-11 04:24:00,
2013-11-10 20:34:00,63.0,37.0,29.85,North,0,0.0,0.0,38,0.00,,,0.00,,2013-11-11 04:34:00,
2013-11-10 20:43:00,63.0,37.0,29.85,North,0,0.0,0.0,38,0.00,,,0.00,,2013-11-11 04:43:00,
2013-11-10 21:23:00,66.0,31.0,29.87,North,0,0.0,0.0,27,0.00,,,0.00,,2013-11-11 05:23:00,
2013-11-10 21:34:00,66.0,31.0,29.87,North,0,0.0,0.0,27,0.00,,,0.00,,2013-11-11 05:34:00,
2013-11-10 22:21:00,67.0,33.0,29.86,North,0,0.0,0.0,28,0.00,,,0.00,,2013-11-11 06:21:00,